Coeymans Hollow, NY

11:11 AM EDT on March 30, 2015 (GMT -0400)
Callanan's Corners | | Change Station
CLOSE
Current Station
Personal Weather Station
Location: Ravena, NY
Elevation: 387 ft
Nearby Weather Stations

Elev 387 ft 42.53 °N, 73.89 °W | Updated 15 seconds ago

Overcast
Overcast
37.8 °F
Feels Like 32 °F
N
8.0
Wind Variable Wind from SW
Gusts 16.0 mph

Today
High -- | Low -- °F
--% Chance of Precip.
Yesterday
High -- | Low -- °F
Precip. -- in
6:42 AM 7:19 PM
Waxing Gibbous, 80% visible
Pressure 29.75 in
Visibility 10.0 miles
Clouds Few 1500 ft
Scattered Clouds 4500 ft
Overcast 6500 ft
Windchill 32 °F
Dew Point 32 °F
Humidity 79%
Rainfall 0.00 in
Snow Depth Not available.
UV 2 out of 12
Pollen 3.50 out of 12
Air Quality Not available.
Flu Activity Not available.
METAR KALB 301451Z 18012G22KT 10SM FEW015 SCT045 OVC065 02/M02 A2973 RMK AO2 SNE02 SLP072 OCNL BINOVC P0000 60000 T00221022 58018

More Conditions Fewer Conditions

Pressure 29.75 in
Visibility 10.0 miles
Clouds Few 1500 ft
Scattered Clouds 4500 ft
Overcast 6500 ft
Windchill 32 °F
Dew Point 32 °F
Humidity 79%
Rainfall 0.00 in
Snow Depth Not available.
UV 2 out of 12
Pollen 3.50 out of 12
Air Quality Not available.
Flu Activity Not available.
METAR KALB 301451Z 18012G22KT 10SM FEW015 SCT045 OVC065 02/M02 A2973 RMK AO2 SNE02 SLP072 OCNL BINOVC P0000 60000 T00221022 58018

More Conditions Fewer Conditions

10-Day Weather Forecast

Almanac

Astronomy

Mar. 30, 2015 Rise Set
Actual Time
Civil Twilight
Nautical Twilight
Astronomical Twilight
Moon
Length of Visible Light
Length of Day
Tomorrow will be .
, % of the Moon is Illuminated

Today's Extremes

State Highs State Lows

Community

WunderPhotos

Upload Photos

1,809,519 photos uploaded!

WunderBlogs® & News

Nearby

Air Quality

  Air Quality AQ Index Pollutant
Not available.

Snow Depth

Station Depth Elevation

Earthquake Activity

City Distance Mag. Time & Date
Minimum magnitude displayed is 2.5.

Coastal Water Temperatures

Place Temperature

Stations

Nearby Weather Stations

Station Location Temp. Windchill Dew Point Humidity Wind Precip. Elev Updated Type